createdAt,value
2018-08-14T00:00:35.824Z,26.40
2018-08-14T00:03:08.063Z,24.32
2018-08-14T00:05:36.511Z,25.90
2018-08-14T00:08:05.005Z,23.62
2018-08-14T00:10:33.456Z,24.92
2018-08-14T00:13:02.127Z,25.08
2018-08-14T00:15:30.625Z,24.60
2018-08-14T00:17:59.151Z,25.62
2018-08-14T00:20:27.586Z,25.65
2018-08-14T00:22:56.009Z,25.95
2018-08-14T00:25:24.439Z,24.00
2018-08-14T00:27:54.100Z,25.75
2018-08-14T00:30:24.759Z,27.20
2018-08-14T00:32:53.230Z,25.43
2018-08-14T00:35:21.714Z,25.52
2018-08-14T00:37:50.164Z,25.45
2018-08-14T00:40:20.911Z,24.18
2018-08-14T00:42:52.092Z,24.98
2018-08-14T00:45:21.246Z,26.60
2018-08-14T00:47:50.269Z,25.80
2018-08-14T00:50:18.803Z,26.65
2018-08-14T00:52:47.678Z,27.58
2018-08-14T00:55:17.302Z,25.97
2018-08-14T00:57:46.112Z,26.02
2018-08-14T01:00:32.647Z,26.68
2018-08-14T01:03:01.201Z,26.57
2018-08-14T01:05:29.713Z,25.00
2018-08-14T01:07:58.495Z,26.02
2018-08-14T01:10:26.891Z,27.55
2018-08-14T01:12:57.275Z,26.33
2018-08-14T01:15:27.619Z,26.90
2018-08-14T01:17:56.622Z,26.87
2018-08-14T01:20:26.342Z,28.02
2018-08-14T01:22:54.823Z,27.93
2018-08-14T01:25:23.272Z,26.15
2018-08-14T01:27:52.688Z,26.80
2018-08-14T01:30:24.323Z,27.45
2018-08-14T01:32:52.838Z,26.52
2018-08-14T01:35:21.326Z,27.10
2018-08-14T01:37:49.774Z,26.90
2018-08-14T01:40:18.290Z,27.42
2018-08-14T01:42:46.670Z,27.95
2018-08-14T01:45:15.754Z,24.77
2018-08-14T01:47:44.499Z,25.32
2018-08-14T01:50:18.191Z,27.05
2018-08-14T01:52:46.883Z,27.05
2018-08-14T01:55:15.452Z,27.00
2018-08-14T01:57:44.027Z,27.62
2018-08-14T02:00:12.596Z,27.02
2018-08-14T02:02:41.079Z,27.95
2018-08-14T02:05:10.480Z,29.02
2018-08-14T02:07:39.546Z,27.80
2018-08-14T02:10:10.246Z,28.35
2018-08-14T02:12:38.745Z,28.20
2018-08-14T02:15:08.791Z,27.95
2018-08-14T02:17:37.302Z,27.27
2018-08-14T02:20:06.893Z,26.37
2018-08-14T02:22:35.279Z,27.75
2018-08-14T02:25:03.772Z,27.15
2018-08-14T02:27:32.190Z,27.00
2018-08-14T02:30:00.595Z,28.02
2018-08-14T02:32:29.024Z,25.95
2018-08-14T02:34:57.711Z,27.93
2018-08-14T02:37:26.079Z,27.77
2018-08-14T02:39:54.496Z,28.50
2018-08-14T02:42:23.082Z,27.35
2018-08-14T02:44:51.531Z,27.35
2018-08-14T02:47:20.128Z,26.90
2018-08-14T02:49:48.542Z,27.67
2018-08-14T02:52:17.027Z,26.48
2018-08-14T02:54:45.383Z,26.50
2018-08-14T02:57:13.791Z,27.20
2018-08-14T02:59:42.170Z,28.55
2018-08-14T03:02:10.634Z,27.13
2018-08-14T03:04:39.070Z,27.95
2018-08-14T03:07:07.467Z,28.23
2018-08-14T03:09:35.917Z,27.95
2018-08-14T03:12:04.342Z,27.85
2018-08-14T03:14:32.823Z,28.02
2018-08-14T03:17:01.247Z,29.02
2018-08-14T03:19:29.659Z,30.30
2018-08-14T03:21:58.042Z,27.95
2018-08-14T03:24:26.455Z,28.60
2018-08-14T03:26:55.914Z,28.85
2018-08-14T03:29:24.435Z,28.85
2018-08-14T03:31:52.903Z,30.97
2018-08-14T03:34:21.330Z,30.70
2018-08-14T03:36:49.690Z,30.82
2018-08-14T03:39:18.115Z,32.85
2018-08-14T03:41:46.502Z,35.13
2018-08-14T03:44:14.867Z,34.55
2018-08-14T03:46:43.296Z,33.13
2018-08-14T03:49:11.653Z,35.45
2018-08-14T03:51:40.086Z,35.80
2018-08-14T03:54:08.498Z,36.90
2018-08-14T03:56:36.895Z,35.48
2018-08-14T03:59:05.355Z,34.63
2018-08-14T04:01:33.754Z,34.15
2018-08-14T04:04:02.185Z,37.78
2018-08-14T04:06:30.598Z,42.05
2018-08-14T04:08:59.030Z,37.90
2018-08-14T04:11:27.402Z,38.92
2018-08-14T04:13:55.783Z,39.27
2018-08-14T04:16:24.230Z,38.65
2018-08-14T04:18:52.651Z,40.78
2018-08-14T04:21:21.052Z,39.50
2018-08-14T04:23:49.481Z,39.85
2018-08-14T04:26:17.914Z,40.30
2018-08-14T04:28:46.322Z,39.50
2018-08-14T04:31:14.710Z,40.25
2018-08-14T04:33:43.125Z,43.28
2018-08-14T04:36:11.540Z,40.63
2018-08-14T04:38:39.938Z,42.35
2018-08-14T04:41:09.499Z,40.85
2018-08-14T04:43:37.855Z,42.58
2018-08-14T04:46:06.306Z,42.70
2018-08-14T04:48:34.766Z,44.10
2018-08-14T04:51:03.145Z,43.00
2018-08-14T04:53:31.514Z,43.58
2018-08-14T04:55:59.958Z,43.30
2018-08-14T04:58:28.384Z,43.75
2018-08-14T05:00:56.782Z,41.30
2018-08-14T05:03:25.311Z,44.88
2018-08-14T05:05:53.747Z,46.02
2018-08-14T05:08:22.160Z,46.15
2018-08-14T05:10:50.529Z,43.70
2018-08-14T05:13:18.976Z,46.63
2018-08-14T05:15:47.442Z,51.05
2018-08-14T05:18:15.915Z,51.83
2018-08-14T05:20:44.330Z,51.45
2018-08-14T05:23:12.771Z,48.95
2018-08-14T05:25:41.457Z,49.75
2018-08-14T05:28:09.886Z,51.37
2018-08-14T05:30:38.354Z,49.73
2018-08-14T05:33:06.834Z,55.23
2018-08-14T05:35:35.244Z,57.58
2018-08-14T05:38:03.700Z,57.23
2018-08-14T05:40:32.121Z,56.48
2018-08-14T05:43:00.573Z,58.75
2018-08-14T05:45:29.026Z,56.00
2018-08-14T05:47:58.338Z,59.27
2018-08-14T05:50:26.811Z,58.20
2018-08-14T05:52:55.227Z,59.65
2018-08-14T05:55:23.577Z,59.10
2018-08-14T05:57:51.983Z,62.65
2018-08-14T06:00:20.423Z,67.30
2018-08-14T06:02:48.842Z,60.20
2018-08-14T06:05:17.271Z,61.83
2018-08-14T06:07:45.742Z,64.10
2018-08-14T06:10:14.245Z,65.25
2018-08-14T06:12:42.665Z,64.35
2018-08-14T06:15:13.714Z,66.00
2018-08-14T06:17:42.203Z,65.90
2018-08-14T06:20:13.097Z,66.45
2018-08-14T06:22:42.066Z,63.28
2018-08-14T06:25:11.399Z,60.30
2018-08-14T06:27:40.350Z,62.93
2018-08-14T06:30:12.895Z,67.25
2018-08-14T06:32:41.485Z,65.47
2018-08-14T06:35:10.186Z,61.15
2018-08-14T06:37:39.460Z,63.13
2018-08-14T06:40:10.674Z,63.73
2018-08-14T06:42:39.678Z,60.10
2018-08-14T06:45:11.175Z,62.35
2018-08-14T06:47:39.691Z,59.93
2018-08-14T06:50:11.382Z,59.25
2018-08-14T06:52:39.802Z,61.18
2018-08-14T06:55:09.626Z,63.65
2018-08-14T06:57:38.898Z,63.70
2018-08-14T07:00:10.755Z,62.55
2018-08-14T07:02:39.249Z,62.40
2018-08-14T07:05:08.305Z,66.72
2018-08-14T07:07:36.745Z,65.15
2018-08-14T07:10:06.549Z,62.55
2018-08-14T07:12:35.302Z,67.20
2018-08-14T07:15:03.809Z,61.13
2018-08-14T07:17:32.271Z,57.35
2018-08-14T07:20:00.718Z,60.63
2018-08-14T07:22:29.147Z,58.13
2018-08-14T07:24:57.589Z,60.15
2018-08-14T07:27:26.044Z,58.75
2018-08-14T07:29:54.456Z,60.63
2018-08-14T07:32:23.955Z,57.35
2018-08-14T07:34:52.398Z,57.83
2018-08-14T07:37:20.839Z,59.10
2018-08-14T07:39:49.298Z,59.65
2018-08-14T07:42:17.667Z,56.77
2018-08-14T07:44:46.094Z,59.85
2018-08-14T07:47:14.537Z,58.68
2018-08-14T07:49:43.165Z,57.70
2018-08-14T07:52:11.587Z,53.50
2018-08-14T07:54:40.070Z,56.08
2018-08-14T07:57:08.529Z,55.03
2018-08-14T07:59:36.962Z,49.05
2018-08-14T08:02:05.438Z,49.73
2018-08-14T08:04:33.866Z,51.02
2018-08-14T08:07:02.356Z,48.52
2018-08-14T08:09:30.837Z,47.25
2018-08-14T08:11:59.334Z,46.65
2018-08-14T08:14:27.683Z,42.70
2018-08-14T08:16:56.093Z,42.83
2018-08-14T08:19:24.537Z,41.68
2018-08-14T08:21:53.008Z,42.10
2018-08-14T08:24:21.430Z,40.08
2018-08-14T08:26:49.899Z,36.98
2018-08-14T08:29:18.319Z,40.70
2018-08-14T08:31:46.831Z,38.42
2018-08-14T08:34:15.313Z,34.13
2018-08-14T08:36:43.720Z,34.20
2018-08-14T08:39:12.198Z,33.33
2018-08-14T08:41:40.647Z,31.70
2018-08-14T08:44:09.063Z,30.27
2018-08-14T08:46:37.576Z,32.65
2018-08-14T08:49:06.114Z,29.00
2018-08-14T08:51:34.453Z,28.92
2018-08-14T08:54:02.914Z,29.52
2018-08-14T08:56:31.494Z,30.25
2018-08-14T08:58:59.907Z,29.42
2018-08-14T09:01:28.357Z,29.40
2018-08-14T09:03:56.789Z,28.90
2018-08-14T09:06:25.275Z,27.40
2018-08-14T09:08:53.843Z,26.40
2018-08-14T09:11:22.290Z,26.82
2018-08-14T09:13:50.775Z,25.65
2018-08-14T09:16:19.245Z,24.72
2018-08-14T09:18:47.723Z,23.22
2018-08-14T09:21:16.186Z,23.30
2018-08-14T09:23:44.851Z,21.97
2018-08-14T09:26:13.434Z,21.80
2018-08-14T09:28:41.912Z,21.82
2018-08-14T09:31:10.417Z,22.60
2018-08-14T09:33:38.832Z,22.05
2018-08-14T09:36:08.511Z,22.75
2018-08-14T09:38:36.953Z,21.57
2018-08-14T09:41:05.426Z,21.12
2018-08-14T09:43:33.928Z,21.85
2018-08-14T09:46:02.411Z,19.92
2018-08-14T09:48:30.958Z,21.52
2018-08-14T09:50:59.569Z,21.45
2018-08-14T09:53:28.007Z,22.85
2018-08-14T09:55:56.425Z,21.02
2018-08-14T09:58:26.007Z,21.25
2018-08-14T10:00:59.884Z,20.62
2018-08-14T10:03:37.447Z,21.65
2018-08-14T10:06:11.108Z,21.33
2018-08-14T10:08:39.599Z,20.05
2018-08-14T10:11:08.137Z,20.68
2018-08-14T10:13:36.662Z,21.05
2018-08-14T10:16:05.086Z,20.10
2018-08-14T10:18:33.584Z,21.75
2018-08-14T10:21:02.339Z,20.05
2018-08-14T10:23:31.161Z,19.95
2018-08-14T10:25:59.759Z,19.48
2018-08-14T10:28:28.283Z,19.90
2018-08-14T10:30:56.853Z,19.02
2018-08-14T10:33:25.298Z,19.45
2018-08-14T10:35:53.784Z,19.00
2018-08-14T10:38:22.318Z,18.32
2018-08-14T10:40:50.794Z,22.27
2018-08-14T10:43:19.206Z,19.92
2018-08-14T10:45:47.654Z,20.50
2018-08-14T10:48:16.118Z,19.80
2018-08-14T10:50:44.576Z,20.15
2018-08-14T10:53:13.054Z,19.48
2018-08-14T10:55:41.598Z,18.32
2018-08-14T10:58:10.213Z,18.90
2018-08-14T11:00:38.593Z,17.30
2018-08-14T11:03:07.068Z,16.70
2018-08-14T11:05:35.577Z,18.95
2018-08-14T11:08:04.102Z,17.40
2018-08-14T11:10:37.774Z,19.30
2018-08-14T11:13:06.173Z,18.77
2018-08-14T11:15:34.643Z,18.57
2018-08-14T11:18:04.358Z,16.90
2018-08-14T11:20:32.866Z,19.62
2018-08-14T11:23:01.879Z,19.65
2018-08-14T11:25:30.374Z,19.45
2018-08-14T11:27:58.924Z,18.32
2018-08-14T11:30:27.798Z,18.62
2018-08-14T11:32:56.434Z,19.55
2018-08-14T11:35:29.451Z,19.23
2018-08-14T11:37:57.982Z,20.57
2018-08-14T11:40:26.451Z,21.05
2018-08-14T11:42:54.923Z,20.10
2018-08-14T11:45:26.972Z,19.87
2018-08-14T11:47:55.441Z,18.20
2018-08-14T11:50:23.905Z,20.52
2018-08-14T11:52:53.836Z,18.57
2018-08-14T11:55:22.703Z,18.60
2018-08-14T11:57:51.794Z,19.35
2018-08-14T12:00:23.869Z,20.68
2018-08-14T12:02:53.254Z,20.23
2018-08-14T12:05:21.692Z,18.00
2018-08-14T12:07:50.162Z,18.80
2018-08-14T12:10:18.931Z,20.40
2018-08-14T12:12:47.432Z,19.80
2018-08-14T12:15:16.826Z,19.32
2018-08-14T12:17:46.349Z,19.23
2018-08-14T12:20:18.001Z,18.50
2018-08-14T12:22:46.498Z,19.60
2018-08-14T12:25:16.404Z,20.52
2018-08-14T12:27:45.191Z,20.05
2018-08-14T12:30:16.128Z,18.95
2018-08-14T12:32:44.539Z,22.07
2018-08-14T12:35:12.991Z,19.87
2018-08-14T12:37:41.583Z,19.42
2018-08-14T12:40:11.330Z,20.20
2018-08-14T12:42:39.903Z,20.50
2018-08-14T12:45:13.127Z,19.25
2018-08-14T12:47:41.588Z,19.52
2018-08-14T12:50:13.593Z,18.87
2018-08-14T12:52:42.098Z,20.20
2018-08-14T12:55:11.346Z,19.48
2018-08-14T12:57:40.067Z,19.45
2018-08-14T13:00:11.590Z,19.35
2018-08-14T13:02:40.088Z,18.73
2018-08-14T13:05:08.578Z,18.42
2018-08-14T13:07:37.021Z,17.48
2018-08-14T13:10:07.014Z,19.32
2018-08-14T13:12:35.554Z,18.45
2018-08-14T13:15:04.128Z,17.52
2018-08-14T13:17:32.618Z,18.23
2018-08-14T13:20:01.101Z,17.50
2018-08-14T13:22:29.639Z,18.12
2018-08-14T13:24:58.084Z,16.35
2018-08-14T13:27:26.603Z,17.35
2018-08-14T13:29:55.036Z,16.73
2018-08-14T13:32:23.525Z,16.62
2018-08-14T13:34:51.998Z,19.80
2018-08-14T13:37:20.529Z,17.85
2018-08-14T13:39:49.052Z,18.42
2018-08-14T13:42:17.607Z,17.95
2018-08-14T13:44:46.063Z,17.85
2018-08-14T13:47:14.477Z,19.02
2018-08-14T13:49:42.946Z,17.60
2018-08-14T13:52:11.500Z,18.80
2018-08-14T13:54:39.930Z,18.00
2018-08-14T13:57:08.414Z,18.92
2018-08-14T13:59:36.877Z,19.60
2018-08-14T14:02:05.338Z,19.35
2018-08-14T14:04:33.815Z,18.20
2018-08-14T14:07:02.371Z,20.65
2018-08-14T14:09:30.797Z,17.23
2018-08-14T14:11:59.261Z,17.40
2018-08-14T14:14:27.720Z,17.52
2018-08-14T14:16:56.147Z,17.73
2018-08-14T14:19:24.677Z,17.82
2018-08-14T14:21:53.230Z,17.07
2018-08-14T14:24:21.678Z,17.65
2018-08-14T14:26:50.238Z,18.65
2018-08-14T14:29:18.697Z,17.95
2018-08-14T14:31:47.106Z,19.00
2018-08-14T14:34:15.686Z,19.67
2018-08-14T14:36:44.139Z,19.95
2018-08-14T14:39:12.644Z,18.30
2018-08-14T14:41:41.203Z,18.90
2018-08-14T14:44:09.653Z,19.35
2018-08-14T14:46:38.226Z,19.02
2018-08-14T14:49:06.785Z,18.48
2018-08-14T14:51:35.244Z,18.17
2018-08-14T14:54:03.866Z,17.73
2018-08-14T14:56:32.327Z,20.00
2018-08-14T14:59:00.828Z,18.42
2018-08-14T15:01:29.259Z,17.25
2018-08-14T15:03:57.724Z,17.02
2018-08-14T15:06:26.214Z,17.67
2018-08-14T15:08:54.728Z,18.52
2018-08-14T15:11:23.227Z,17.60
2018-08-14T15:13:51.699Z,17.80
2018-08-14T15:16:20.166Z,17.87
2018-08-14T15:18:48.693Z,18.10
2018-08-14T15:21:17.194Z,16.70
2018-08-14T15:23:45.706Z,17.82
2018-08-14T15:26:14.170Z,17.73
2018-08-14T15:29:28.398Z,18.42
2018-08-14T15:31:58.408Z,16.52
2018-08-14T15:34:32.031Z,17.00
2018-08-14T15:37:02.498Z,17.55
2018-08-14T15:39:30.960Z,17.92
2018-08-14T15:42:00.378Z,18.57
2018-08-14T15:44:28.908Z,17.67
2018-08-14T15:46:57.443Z,18.25
2018-08-14T15:49:26.001Z,17.67
2018-08-14T15:51:54.435Z,17.85
2018-08-14T15:54:22.946Z,18.48
2018-08-14T15:56:51.673Z,18.65
2018-08-14T15:59:20.122Z,17.90
2018-08-14T16:01:48.906Z,17.77
2018-08-14T16:04:18.728Z,17.80
2018-08-14T16:06:47.327Z,16.67
2018-08-14T16:09:18.841Z,17.85
2018-08-14T16:11:48.384Z,16.75
2018-08-14T16:14:16.908Z,16.77
2018-08-14T16:16:45.424Z,17.57
2018-08-14T16:19:15.051Z,17.15
2018-08-14T16:21:43.710Z,18.48
2018-08-14T16:24:13.621Z,17.57
2018-08-14T16:26:43.342Z,17.98
2018-08-14T16:29:11.956Z,18.90
2018-08-14T16:31:40.475Z,17.05
2018-08-14T16:34:09.123Z,18.73
2018-08-14T16:36:37.815Z,18.45
2018-08-14T16:39:08.755Z,17.02
2018-08-14T16:41:37.211Z,18.00
2018-08-14T16:44:05.679Z,18.40
2018-08-14T16:46:34.196Z,17.45
2018-08-14T16:49:02.622Z,17.57
2018-08-14T16:51:31.125Z,18.15
2018-08-14T16:53:59.655Z,17.98
2018-08-14T16:56:28.123Z,18.70
2018-08-14T16:58:56.616Z,16.77
2018-08-14T17:01:25.087Z,17.80
2018-08-14T17:03:53.576Z,17.48
2018-08-14T17:06:21.979Z,18.57
2018-08-14T17:08:50.532Z,18.80
2018-08-14T17:11:19.126Z,17.90
2018-08-14T17:13:47.659Z,17.80
2018-08-14T17:16:16.275Z,19.05
2018-08-14T17:18:44.752Z,17.70
2018-08-14T17:21:11.947Z,17.62
2018-08-14T17:23:41.603Z,18.75
2018-08-14T17:26:10.066Z,17.62
2018-08-14T17:28:38.664Z,17.25
2018-08-14T17:31:07.242Z,18.55
2018-08-14T17:33:35.800Z,17.80
2018-08-14T17:36:04.443Z,17.82
2018-08-14T17:38:33.198Z,18.20
2018-08-14T17:41:01.924Z,19.00
2018-08-14T17:43:30.407Z,18.15
2018-08-14T17:45:59.075Z,19.42
2018-08-14T17:48:28.355Z,18.55
2018-08-14T17:50:56.992Z,18.67
2018-08-14T17:53:26.392Z,18.98
2018-08-14T17:55:54.976Z,17.75
2018-08-14T17:58:23.549Z,19.30
2018-08-14T18:00:52.000Z,18.50
2018-08-14T18:03:20.602Z,18.80
2018-08-14T18:05:49.033Z,18.07
2018-08-14T18:08:17.661Z,19.60
2018-08-14T18:10:46.176Z,19.35
2018-08-14T18:13:14.667Z,17.35
2018-08-14T18:15:43.431Z,18.27
2018-08-14T18:18:12.377Z,17.77
2018-08-14T18:20:40.919Z,19.12
2018-08-14T18:23:09.532Z,18.95
2018-08-14T18:25:38.568Z,18.30
2018-08-14T18:28:07.340Z,17.40
2018-08-14T18:30:36.057Z,18.23
2018-08-14T18:33:05.632Z,18.15
2018-08-14T18:35:34.284Z,17.62
2018-08-14T18:38:02.818Z,17.95
2018-08-14T18:40:31.599Z,18.07
2018-08-14T18:43:00.076Z,17.32
2018-08-14T18:45:28.658Z,17.73
2018-08-14T18:47:57.376Z,17.80
2018-08-14T18:50:25.852Z,18.57
2018-08-14T18:52:54.433Z,18.85
2018-08-14T18:55:23.153Z,17.60
2018-08-14T18:57:51.698Z,18.02
2018-08-14T19:00:25.300Z,20.55
2018-08-14T19:02:55.328Z,18.65
2018-08-14T19:05:24.182Z,18.73
2018-08-14T19:07:52.785Z,16.97
2018-08-14T19:10:23.188Z,19.57
2018-08-14T19:12:52.635Z,18.05
2018-08-14T19:15:25.141Z,18.73
2018-08-14T19:17:53.904Z,18.52
2018-08-14T19:20:22.458Z,17.32
2018-08-14T19:22:50.985Z,19.02
2018-08-14T19:25:19.673Z,18.40
2018-08-14T19:27:48.260Z,18.90
2018-08-14T19:30:16.876Z,19.30
2018-08-14T19:32:45.532Z,17.75
2018-08-14T19:35:15.428Z,18.15
2018-08-14T19:37:44.089Z,16.60
2018-08-14T19:40:15.964Z,18.45
2018-08-14T19:42:44.855Z,19.27
2018-08-14T19:45:13.386Z,18.02
2018-08-14T19:47:42.261Z,17.55
2018-08-14T19:50:13.160Z,17.23
2018-08-14T19:52:41.907Z,17.35
2018-08-14T19:55:12.568Z,16.65
2018-08-14T19:57:42.473Z,18.65
2018-08-14T20:00:12.683Z,18.92
2018-08-14T20:02:42.193Z,18.67
2018-08-14T20:05:13.030Z,18.00
2018-08-14T20:07:41.917Z,17.12
2018-08-14T20:10:12.101Z,17.32
2018-08-14T20:12:41.412Z,17.48
2018-08-14T20:15:13.676Z,18.98
2018-08-14T20:17:42.443Z,18.23
2018-08-14T20:20:13.158Z,17.42
2018-08-14T20:22:41.935Z,18.05
2018-08-14T20:25:10.817Z,17.85
2018-08-14T20:27:39.378Z,18.12
2018-08-14T20:30:13.993Z,18.07
2018-08-14T20:32:42.690Z,16.55
2018-08-14T20:35:13.294Z,17.10
2018-08-14T20:37:42.227Z,17.17
2018-08-14T20:40:12.977Z,18.30
2018-08-14T20:42:41.647Z,18.37
2018-08-14T20:45:11.682Z,17.00
2018-08-14T20:47:40.379Z,17.27
2018-08-14T20:50:11.331Z,18.07
2018-08-14T20:52:39.985Z,17.50
2018-08-14T20:55:10.309Z,18.23
2018-08-14T20:57:40.189Z,18.65
2018-08-14T21:00:11.975Z,18.87
2018-08-14T21:02:40.566Z,18.12
2018-08-14T21:05:09.177Z,17.85
2018-08-14T21:07:37.866Z,17.30
2018-08-14T21:10:07.946Z,17.87
2018-08-14T21:12:43.033Z,18.05
2018-08-14T21:15:14.029Z,17.70
2018-08-14T21:17:43.680Z,19.27
2018-08-14T21:20:15.049Z,18.85
2018-08-14T21:22:44.226Z,19.07
2018-08-14T21:25:12.725Z,17.60
2018-08-14T21:27:41.346Z,18.73
2018-08-14T21:30:12.201Z,18.45
2018-08-14T21:32:41.003Z,20.23
2018-08-14T21:35:11.729Z,19.52
2018-08-14T21:37:40.421Z,18.70
2018-08-14T21:40:12.255Z,18.80
2018-08-14T21:42:41.151Z,18.95
2018-08-14T21:45:11.849Z,17.62
2018-08-14T21:47:40.416Z,18.35
2018-08-14T21:50:09.172Z,17.67
2018-08-14T21:52:38.574Z,17.95
2018-08-14T21:55:08.599Z,17.95
2018-08-14T21:57:37.206Z,18.07
2018-08-14T22:00:15.777Z,19.00
2018-08-14T22:02:44.923Z,18.70
2018-08-14T22:05:14.011Z,19.32
2018-08-14T22:07:42.993Z,18.87
2018-08-14T22:10:11.556Z,18.95
2018-08-14T22:12:40.065Z,18.37
2018-08-14T22:15:08.982Z,18.30
2018-08-14T22:17:38.140Z,19.45
2018-08-14T22:20:08.590Z,18.87
2018-08-14T22:22:37.147Z,18.50
2018-08-14T22:25:06.476Z,18.95
2018-08-14T22:27:35.099Z,17.85
2018-08-14T22:30:03.880Z,17.75
2018-08-14T22:32:32.453Z,18.12
2018-08-14T22:35:01.108Z,17.70
2018-08-14T22:37:29.636Z,18.98
2018-08-14T22:39:58.116Z,18.57
2018-08-14T22:42:26.583Z,18.17
2018-08-14T22:44:55.145Z,18.60
2018-08-14T22:47:23.646Z,18.05
2018-08-14T22:49:52.103Z,18.73
2018-08-14T22:52:20.527Z,19.55
2018-08-14T22:54:49.131Z,19.25
2018-08-14T22:57:17.686Z,17.30
2018-08-14T22:59:46.143Z,18.05
2018-08-14T23:02:14.729Z,16.97
2018-08-14T23:04:43.228Z,18.73
2018-08-14T23:07:11.769Z,17.75
2018-08-14T23:09:40.327Z,17.95
2018-08-14T23:12:08.980Z,18.40
2018-08-14T23:14:37.577Z,18.65
2018-08-14T23:17:06.234Z,17.95
2018-08-14T23:19:34.878Z,18.37
2018-08-14T23:22:03.498Z,18.25
2018-08-14T23:24:32.039Z,18.57
2018-08-14T23:27:00.560Z,18.40
2018-08-14T23:29:29.042Z,17.85
2018-08-14T23:31:57.577Z,18.52
2018-08-14T23:34:25.971Z,18.07
2018-08-14T23:36:54.431Z,18.00
2018-08-14T23:39:23.031Z,17.82
2018-08-14T23:41:51.580Z,20.30
2018-08-14T23:44:19.966Z,17.92
2018-08-14T23:46:48.571Z,17.65
2018-08-14T23:49:16.987Z,17.20
2018-08-14T23:51:45.523Z,17.70
2018-08-14T23:54:13.966Z,17.57
2018-08-14T23:56:42.543Z,17.75
2018-08-14T23:59:11.490Z,18.12
